createdAt,value
2023-09-26T00:00:35.139Z,1024.41
2023-09-26T00:01:36.135Z,1024.43
2023-09-26T00:02:36.612Z,1024.42
2023-09-26T00:03:37.483Z,1024.38
2023-09-26T00:04:38.471Z,1024.40
2023-09-26T00:05:38.927Z,1024.39
2023-09-26T00:06:39.808Z,1024.37
2023-09-26T00:07:40.680Z,1024.36
2023-09-26T00:08:41.580Z,1024.37
2023-09-26T00:09:42.511Z,1024.36
2023-09-26T00:10:43.385Z,1024.36
2023-09-26T00:11:44.242Z,1024.35
2023-09-26T00:12:45.307Z,1024.36
2023-09-26T00:13:45.772Z,1024.39
2023-09-26T00:14:46.660Z,1024.42
2023-09-26T00:15:47.617Z,1024.41
2023-09-26T00:16:48.484Z,1024.41
2023-09-26T00:17:49.367Z,1024.39
2023-09-26T00:18:50.288Z,1024.37
2023-09-26T00:19:51.162Z,1024.39
2023-09-26T00:20:52.043Z,1024.38
2023-09-26T00:21:52.925Z,1024.36
2023-09-26T00:22:53.807Z,1024.32
2023-09-26T00:23:54.664Z,1024.34
2023-09-26T00:24:55.666Z,1024.34
2023-09-26T00:25:56.527Z,1024.35
2023-09-26T00:26:57.404Z,1024.35
2023-09-26T00:27:58.284Z,1024.32
2023-09-26T00:28:59.211Z,1024.33
2023-09-26T00:30:00.069Z,1024.34
2023-09-26T00:31:00.986Z,1024.35
2023-09-26T00:32:01.957Z,1024.35
2023-09-26T00:33:02.893Z,1024.34
2023-09-26T00:34:03.761Z,1024.35
2023-09-26T00:35:04.643Z,1024.36
2023-09-26T00:36:05.517Z,1024.32
2023-09-26T00:37:06.508Z,1024.32
2023-09-26T00:38:07.038Z,1024.33
2023-09-26T00:39:07.930Z,1024.28
2023-09-26T00:40:08.860Z,1024.27
2023-09-26T00:41:09.696Z,1024.26
2023-09-26T00:42:10.573Z,1024.26
2023-09-26T00:43:11.487Z,1024.26
2023-09-26T00:44:11.966Z,1024.28
2023-09-26T00:45:12.864Z,1024.30
2023-09-26T00:46:13.793Z,1024.30
2023-09-26T00:47:14.770Z,1024.30
2023-09-26T00:48:15.678Z,1024.30
2023-09-26T00:49:16.575Z,1024.31
2023-09-26T00:50:17.431Z,1024.29
2023-09-26T00:51:18.311Z,1024.29
2023-09-26T00:52:19.250Z,1024.30
2023-09-26T00:53:20.090Z,1024.32
2023-09-26T00:54:20.975Z,1024.31
2023-09-26T00:55:21.902Z,1024.30
2023-09-26T00:56:22.819Z,1024.30
2023-09-26T00:57:23.709Z,1024.28
2023-09-26T00:58:24.660Z,1024.26
2023-09-26T00:59:25.554Z,1024.26
2023-09-26T01:00:26.426Z,1024.26
2023-09-26T01:01:27.389Z,1024.23
2023-09-26T01:02:28.331Z,1024.25
2023-09-26T01:03:28.949Z,1024.25
2023-09-26T01:04:29.346Z,1024.25
2023-09-26T01:05:30.219Z,1024.23
2023-09-26T01:06:31.084Z,1024.23
2023-09-26T01:07:31.968Z,1024.21
2023-09-26T01:08:32.852Z,1024.17
2023-09-26T01:09:33.734Z,1024.15
2023-09-26T01:10:34.652Z,1024.15
2023-09-26T01:11:35.478Z,1024.13
2023-09-26T01:12:36.381Z,1024.12
2023-09-26T01:13:37.273Z,1024.11
2023-09-26T01:14:38.145Z,1024.10
2023-09-26T01:15:39.044Z,1024.10
2023-09-26T01:16:40.079Z,1024.07
2023-09-26T01:17:40.699Z,1024.07
2023-09-26T01:18:41.554Z,1024.05
2023-09-26T01:19:42.431Z,1024.07
2023-09-26T01:20:43.318Z,1024.05
2023-09-26T01:21:44.261Z,1024.03
2023-09-26T01:22:45.148Z,1024.03
2023-09-26T01:23:46.037Z,1024.03
2023-09-26T01:24:46.951Z,1024.02
2023-09-26T01:25:47.841Z,1024.03
2023-09-26T01:26:48.702Z,1024.01
2023-09-26T01:27:49.595Z,1024.01
2023-09-26T01:28:50.448Z,1024.01
2023-09-26T01:29:51.332Z,1024.05
2023-09-26T01:30:52.231Z,1024.04
2023-09-26T01:31:53.138Z,1024.03
2023-09-26T01:32:54.007Z,1024.01
2023-09-26T01:33:54.932Z,1024.01
2023-09-26T01:34:55.801Z,1024.01
2023-09-26T01:35:56.694Z,1023.98
2023-09-26T01:36:57.596Z,1023.98
2023-09-26T01:37:58.443Z,1023.99
2023-09-26T01:38:59.329Z,1023.98
2023-09-26T01:40:00.268Z,1023.98
2023-09-26T01:41:01.203Z,1024.01
2023-09-26T01:42:02.036Z,1024.02
2023-09-26T01:43:02.947Z,1024.01
2023-09-26T01:44:03.796Z,1024.05
2023-09-26T01:45:04.677Z,1024.07
2023-09-26T01:46:05.615Z,1024.03
2023-09-26T01:47:06.601Z,1024.05
2023-09-26T01:48:07.514Z,1024.07
2023-09-26T01:49:08.429Z,1024.08
2023-09-26T01:50:09.289Z,1024.08
2023-09-26T01:51:10.159Z,1024.09
2023-09-26T01:52:11.100Z,1024.08
2023-09-26T01:53:11.939Z,1024.07
2023-09-26T01:54:12.825Z,1024.07
2023-09-26T01:55:13.766Z,1024.08
2023-09-26T01:56:14.617Z,1024.08
2023-09-26T01:57:15.478Z,1024.07
2023-09-26T01:58:16.369Z,1024.03
2023-09-26T01:59:17.225Z,1024.00
2023-09-26T02:00:18.104Z,1023.98
2023-09-26T02:01:19.066Z,1023.97
2023-09-26T02:02:19.991Z,1023.98
2023-09-26T02:03:22.174Z,1023.96
2023-09-26T02:04:21.463Z,1023.94
2023-09-26T02:05:22.350Z,1023.90
2023-09-26T02:06:23.322Z,1023.91
2023-09-26T02:07:24.208Z,1023.92
2023-09-26T02:08:25.047Z,1023.90
2023-09-26T02:09:25.932Z,1023.91
2023-09-26T02:10:26.894Z,1023.91
2023-09-26T02:11:27.762Z,1023.91
2023-09-26T02:12:28.621Z,1023.90
2023-09-26T02:13:29.634Z,1023.90
2023-09-26T02:14:30.041Z,1023.93
2023-09-26T02:15:30.932Z,1023.92
2023-09-26T02:16:31.970Z,1023.93
2023-09-26T02:17:32.404Z,1023.94
2023-09-26T02:18:33.271Z,1023.94
2023-09-26T02:19:34.205Z,1023.90
2023-09-26T02:20:35.033Z,1023.92
2023-09-26T02:21:35.907Z,1023.91
2023-09-26T02:22:36.779Z,1023.89
2023-09-26T02:23:37.660Z,1023.87
2023-09-26T02:24:38.545Z,1023.87
2023-09-26T02:25:39.417Z,1023.86
2023-09-26T02:26:40.319Z,1023.89
2023-09-26T02:27:41.167Z,1023.88
2023-09-26T02:28:42.057Z,1023.87
2023-09-26T02:29:42.931Z,1023.84
2023-09-26T02:30:43.804Z,1023.83
2023-09-26T02:31:44.756Z,1023.81
2023-09-26T02:32:45.305Z,1023.81
2023-09-26T02:33:46.223Z,1023.81
2023-09-26T02:34:46.805Z,1023.81
2023-09-26T02:35:47.692Z,1023.79
2023-09-26T02:36:48.579Z,1023.77
2023-09-26T02:37:49.457Z,1023.76
2023-09-26T02:38:50.326Z,1023.78
2023-09-26T02:39:51.213Z,1023.76
2023-09-26T02:40:51.731Z,1023.76
2023-09-26T02:41:52.619Z,1023.73
2023-09-26T02:42:53.505Z,1023.78
2023-09-26T02:43:54.364Z,1023.78
2023-09-26T02:44:55.244Z,1023.76
2023-09-26T02:45:56.149Z,1023.78
2023-09-26T02:46:57.027Z,1023.75
2023-09-26T02:47:57.924Z,1023.75
2023-09-26T02:48:58.825Z,1023.75
2023-09-26T02:49:59.683Z,1023.73
2023-09-26T02:51:00.554Z,1023.75
2023-09-26T02:52:01.459Z,1023.73
2023-09-26T02:53:02.311Z,1023.73
2023-09-26T02:54:03.189Z,1023.70
2023-09-26T02:55:04.160Z,1023.73
2023-09-26T02:56:05.054Z,1023.70
2023-09-26T02:57:08.052Z,1023.68
2023-09-26T02:58:06.764Z,1023.70
2023-09-26T02:59:07.584Z,1023.69
2023-09-26T03:00:08.454Z,1023.67
2023-09-26T03:01:09.444Z,1023.69
2023-09-26T03:02:10.340Z,1023.69
2023-09-26T03:03:11.258Z,1023.64
2023-09-26T03:04:12.242Z,1023.64
2023-09-26T03:05:13.108Z,1023.64
2023-09-26T03:06:13.994Z,1023.62
2023-09-26T03:07:14.897Z,1023.61
2023-09-26T03:08:15.762Z,1023.65
2023-09-26T03:09:16.584Z,1023.64
2023-09-26T03:10:17.585Z,1023.63
2023-09-26T03:11:17.977Z,1023.64
2023-09-26T03:12:18.870Z,1023.62
2023-09-26T03:13:19.768Z,1023.62
2023-09-26T03:14:20.733Z,1023.65
2023-09-26T03:15:21.606Z,1023.67
2023-09-26T03:16:22.551Z,1023.67
2023-09-26T03:17:23.408Z,1023.67
2023-09-26T03:18:24.285Z,1023.67
2023-09-26T03:19:25.283Z,1023.66
2023-09-26T03:20:26.159Z,1023.67
2023-09-26T03:21:27.036Z,1023.68
2023-09-26T03:22:27.937Z,1023.65
2023-09-26T03:23:28.788Z,1023.65
2023-09-26T03:24:29.670Z,1023.62
2023-09-26T03:25:30.581Z,1023.61
2023-09-26T03:26:31.463Z,1023.58
2023-09-26T03:27:32.364Z,1023.60
2023-09-26T03:28:33.215Z,1023.60
2023-09-26T03:29:34.106Z,1023.61
2023-09-26T03:30:34.983Z,1023.62
2023-09-26T03:31:35.925Z,1023.62
2023-09-26T03:32:36.866Z,1023.66
2023-09-26T03:33:37.740Z,1023.65
2023-09-26T03:34:38.626Z,1023.64
2023-09-26T03:35:39.502Z,1023.64
2023-09-26T03:36:40.382Z,1023.65
2023-09-26T03:37:41.253Z,1023.64
2023-09-26T03:38:42.149Z,1023.62
2023-09-26T03:39:43.038Z,1023.61
2023-09-26T03:40:43.908Z,1023.63
2023-09-26T03:41:44.874Z,1023.63
2023-09-26T03:42:45.743Z,1023.62
2023-09-26T03:43:46.633Z,1023.62
2023-09-26T03:44:47.517Z,1023.61
2023-09-26T03:45:48.567Z,1023.64
2023-09-26T03:46:49.063Z,1023.64
2023-09-26T03:47:50.109Z,1023.62
2023-09-26T03:48:50.544Z,1023.63
2023-09-26T03:49:51.384Z,1023.66
2023-09-26T03:50:52.267Z,1023.65
2023-09-26T03:51:53.201Z,1023.67
2023-09-26T03:52:54.077Z,1023.66
2023-09-26T03:53:54.964Z,1023.69
2023-09-26T03:54:55.873Z,1023.72
2023-09-26T03:55:56.744Z,1023.74
2023-09-26T03:56:57.613Z,1023.71
2023-09-26T03:57:58.547Z,1023.72
2023-09-26T03:58:59.389Z,1023.69
2023-09-26T04:00:00.328Z,1023.67
2023-09-26T04:01:01.216Z,1023.66
2023-09-26T04:02:02.253Z,1023.64
2023-09-26T04:03:02.755Z,1023.64
2023-09-26T04:04:03.824Z,1023.64
2023-09-26T04:05:04.271Z,1023.63
2023-09-26T04:06:05.153Z,1023.65
2023-09-26T04:07:06.062Z,1023.67
2023-09-26T04:08:06.914Z,1023.68
2023-09-26T04:09:07.788Z,1023.67
2023-09-26T04:10:08.696Z,1023.69
2023-09-26T04:11:09.583Z,1023.72
2023-09-26T04:12:10.493Z,1023.71
2023-09-26T04:13:11.444Z,1023.73
2023-09-26T04:14:12.274Z,1023.73
2023-09-26T04:15:13.188Z,1023.71
2023-09-26T04:16:14.052Z,1023.72
2023-09-26T04:17:14.908Z,1023.69
2023-09-26T04:18:15.787Z,1023.68
2023-09-26T04:19:16.770Z,1023.66
2023-09-26T04:20:31.391Z,1023.67
2023-09-26T04:21:19.428Z,1023.66
2023-09-26T04:22:19.319Z,1023.68
2023-09-26T04:23:20.194Z,1023.68
2023-09-26T04:24:21.045Z,1023.71
2023-09-26T04:25:22.045Z,1023.70
2023-09-26T04:26:22.907Z,1023.70
2023-09-26T04:27:23.784Z,1023.68
2023-09-26T04:28:24.713Z,1023.66
2023-09-26T04:29:25.573Z,1023.68
2023-09-26T04:30:26.427Z,1023.66
2023-09-26T04:31:27.549Z,1023.66
2023-09-26T04:32:28.021Z,1023.66
2023-09-26T04:33:28.884Z,1023.62
2023-09-26T04:34:29.819Z,1023.60
2023-09-26T04:35:30.652Z,1023.61
2023-09-26T04:36:31.528Z,1023.62
2023-09-26T04:37:32.445Z,1023.59
2023-09-26T04:38:33.335Z,1023.59
2023-09-26T04:39:34.284Z,1023.59
2023-09-26T04:40:35.197Z,1023.56
2023-09-26T04:41:36.022Z,1023.61
2023-09-26T04:42:36.895Z,1023.60
2023-09-26T04:43:37.758Z,1023.58
2023-09-26T04:44:38.570Z,1023.65
2023-09-26T04:45:39.394Z,1023.65
2023-09-26T04:46:40.365Z,1023.65
2023-09-26T04:47:41.255Z,1023.66
2023-09-26T04:48:42.122Z,1023.64
2023-09-26T04:49:42.963Z,1023.66
2023-09-26T04:50:43.815Z,1023.65
2023-09-26T04:51:44.628Z,1023.67
2023-09-26T04:52:45.449Z,1023.68
2023-09-26T04:53:46.282Z,1023.70
2023-09-26T04:54:47.112Z,1023.72
2023-09-26T04:55:47.929Z,1023.71
2023-09-26T04:56:48.747Z,1023.73
2023-09-26T04:57:49.578Z,1023.70
2023-09-26T04:58:50.439Z,1023.71
2023-09-26T04:59:51.258Z,1023.72
2023-09-26T05:00:52.090Z,1023.71
2023-09-26T05:01:52.929Z,1023.72
2023-09-26T05:02:53.814Z,1023.74
2023-09-26T05:03:55.030Z,1023.76
2023-09-26T05:04:55.522Z,1023.77
2023-09-26T05:05:56.311Z,1023.77
2023-09-26T05:06:57.152Z,1023.79
2023-09-26T05:07:57.960Z,1023.79
2023-09-26T05:08:58.794Z,1023.79
2023-09-26T05:09:59.725Z,1023.80
2023-09-26T05:11:00.534Z,1023.81
2023-09-26T05:12:01.357Z,1023.80
2023-09-26T05:13:02.639Z,1023.78
2023-09-26T05:14:02.983Z,1023.78
2023-09-26T05:15:03.761Z,1023.82
2023-09-26T05:16:04.625Z,1023.78
2023-09-26T05:17:05.436Z,1023.79
2023-09-26T05:18:06.313Z,1023.80
2023-09-26T05:19:07.100Z,1023.80
2023-09-26T05:20:07.909Z,1023.79
2023-09-26T05:21:08.756Z,1023.76
2023-09-26T05:22:09.593Z,1023.78
2023-09-26T05:23:10.421Z,1023.78
2023-09-26T05:24:11.250Z,1023.77
2023-09-26T05:25:12.121Z,1023.77
2023-09-26T05:26:12.960Z,1023.76
2023-09-26T05:27:13.791Z,1023.78
2023-09-26T05:28:14.634Z,1023.76
2023-09-26T05:29:15.445Z,1023.74
2023-09-26T05:30:16.259Z,1023.78
2023-09-26T05:31:17.136Z,1023.77
2023-09-26T05:32:17.623Z,1023.75
2023-09-26T05:33:18.449Z,1023.75
2023-09-26T05:34:19.300Z,1023.75
2023-09-26T05:35:20.145Z,1023.72
2023-09-26T05:36:20.994Z,1023.70
2023-09-26T05:37:21.834Z,1023.71
2023-09-26T05:38:22.625Z,1023.73
2023-09-26T05:39:23.440Z,1023.73
2023-09-26T05:40:24.262Z,1023.72
2023-09-26T05:41:25.074Z,1023.71
2023-09-26T05:42:25.921Z,1023.68
2023-09-26T05:43:26.749Z,1023.67
2023-09-26T05:44:27.568Z,1023.70
2023-09-26T05:45:28.376Z,1023.67
2023-09-26T05:46:29.323Z,1023.66
2023-09-26T05:47:30.196Z,1023.65
2023-09-26T05:48:31.043Z,1023.65
2023-09-26T05:49:31.881Z,1023.64
2023-09-26T05:50:32.710Z,1023.64
2023-09-26T05:51:33.539Z,1023.65
2023-09-26T05:52:34.374Z,1023.65
2023-09-26T05:53:35.181Z,1023.66
2023-09-26T05:54:36.011Z,1023.65
2023-09-26T05:55:36.902Z,1023.63
2023-09-26T05:56:37.672Z,1023.63
2023-09-26T05:57:38.485Z,1023.62
2023-09-26T05:58:39.347Z,1023.65
2023-09-26T05:59:40.294Z,1023.63
2023-09-26T06:00:41.063Z,1023.64
2023-09-26T06:01:41.925Z,1023.64
2023-09-26T06:02:42.912Z,1023.63
2023-09-26T06:03:43.393Z,1023.64
2023-09-26T06:04:44.034Z,1023.65
2023-09-26T06:05:44.573Z,1023.65
2023-09-26T06:06:45.353Z,1023.66
2023-09-26T06:07:46.166Z,1023.65
2023-09-26T06:08:46.993Z,1023.63
2023-09-26T06:10:05.261Z,1023.62
2023-09-26T06:10:49.575Z,1023.62
2023-09-26T06:11:49.430Z,1023.66
2023-09-26T06:12:50.265Z,1023.60
2023-09-26T06:13:51.372Z,1023.59
2023-09-26T06:14:51.840Z,1023.60
2023-09-26T06:15:52.696Z,1023.61
2023-09-26T06:16:53.594Z,1023.59
2023-09-26T06:17:54.453Z,1023.56
2023-09-26T06:18:55.272Z,1023.57
2023-09-26T06:19:56.087Z,1023.56
2023-09-26T06:20:56.912Z,1023.54
2023-09-26T06:21:57.755Z,1023.58
2023-09-26T06:22:58.581Z,1023.59
2023-09-26T06:23:59.425Z,1023.59
2023-09-26T06:25:00.334Z,1023.58
2023-09-26T06:26:01.196Z,1023.57
2023-09-26T06:27:02.012Z,1023.57
2023-09-26T06:28:02.856Z,1023.57
2023-09-26T06:29:03.645Z,1023.58
2023-09-26T06:30:04.479Z,1023.57
2023-09-26T06:31:05.409Z,1023.56
2023-09-26T06:32:06.290Z,1023.54
2023-09-26T06:33:07.246Z,1023.58
2023-09-26T06:34:07.628Z,1023.57
2023-09-26T06:35:08.464Z,1023.58
2023-09-26T06:36:09.269Z,1023.59
2023-09-26T06:37:10.147Z,1023.58
2023-09-26T06:38:10.929Z,1023.55
2023-09-26T06:39:11.743Z,1023.53
2023-09-26T06:40:12.635Z,1023.55
2023-09-26T06:41:13.415Z,1023.55
2023-09-26T06:42:14.264Z,1023.53
2023-09-26T06:43:15.130Z,1023.52
2023-09-26T06:44:15.933Z,1023.52
2023-09-26T06:45:16.800Z,1023.50
2023-09-26T06:46:17.650Z,1023.45
2023-09-26T06:47:18.528Z,1023.44
2023-09-26T06:48:19.307Z,1023.45
2023-09-26T06:49:20.218Z,1023.46
2023-09-26T06:50:20.659Z,1023.47
2023-09-26T06:51:21.495Z,1023.45
2023-09-26T06:52:22.350Z,1023.44
2023-09-26T06:53:23.149Z,1023.48
2023-09-26T06:54:23.965Z,1023.46
2023-09-26T06:55:24.827Z,1023.45
2023-09-26T06:56:25.636Z,1023.47
2023-09-26T06:57:26.461Z,1023.43
2023-09-26T06:58:27.341Z,1023.44
2023-09-26T06:59:28.118Z,1023.39
2023-09-26T07:00:28.952Z,1023.45
2023-09-26T07:01:29.607Z,1023.43
2023-09-26T07:02:30.243Z,1023.41
2023-09-26T07:03:31.017Z,1023.44
2023-09-26T07:04:32.034Z,1023.42
2023-09-26T07:05:32.368Z,1023.39
2023-09-26T07:06:33.184Z,1023.41
2023-09-26T07:07:34.010Z,1023.41
2023-09-26T07:08:34.838Z,1023.43
2023-09-26T07:09:35.657Z,1023.43
2023-09-26T07:10:36.479Z,1023.41
2023-09-26T07:11:37.307Z,1023.41
2023-09-26T07:12:38.123Z,1023.41
2023-09-26T07:14:39.746Z,1023.41
2023-09-26T07:15:40.653Z,1023.38
2023-09-26T07:16:41.497Z,1023.38
2023-09-26T07:17:43.568Z,1023.39
2023-09-26T07:18:43.346Z,1023.40
2023-09-26T07:19:44.151Z,1023.38
2023-09-26T07:20:44.983Z,1023.36
2023-09-26T07:21:45.853Z,1023.36
2023-09-26T07:22:46.665Z,1023.34
2023-09-26T07:23:47.498Z,1023.34
2023-09-26T07:24:50.142Z,1023.35
2023-09-26T07:25:49.238Z,1023.36
2023-09-26T07:26:51.059Z,1023.36
2023-09-26T07:27:50.931Z,1023.38
2023-09-26T07:28:51.713Z,1023.37
2023-09-26T07:29:52.223Z,1023.36
2023-09-26T07:30:53.133Z,1023.36
2023-09-26T07:31:53.994Z,1023.35
2023-09-26T07:32:54.843Z,1023.34
2023-09-26T07:33:56.076Z,1023.34
2023-09-26T07:34:56.486Z,1023.35
2023-09-26T07:35:57.300Z,1023.35
2023-09-26T07:36:58.170Z,1023.33
2023-09-26T07:37:58.999Z,1023.35
2023-09-26T07:38:59.820Z,1023.35
2023-09-26T07:40:00.680Z,1023.37
2023-09-26T07:41:01.574Z,1023.31
2023-09-26T07:42:02.431Z,1023.34
2023-09-26T07:43:03.265Z,1023.31
2023-09-26T07:44:04.059Z,1023.30
2023-09-26T07:45:04.879Z,1023.34
2023-09-26T07:46:05.903Z,1023.31
2023-09-26T07:47:06.387Z,1023.35
2023-09-26T07:48:06.748Z,1023.35
2023-09-26T07:49:07.575Z,1023.34
2023-09-26T07:50:08.384Z,1023.37
2023-09-26T07:51:10.058Z,1023.37
2023-09-26T07:52:10.188Z,1023.39
2023-09-26T07:53:10.992Z,1023.40
2023-09-26T07:54:11.808Z,1023.34
2023-09-26T07:55:12.650Z,1023.34
2023-09-26T07:56:13.464Z,1023.32
2023-09-26T07:57:14.275Z,1023.32
2023-09-26T07:58:15.107Z,1023.31
2023-09-26T07:59:15.928Z,1023.33
2023-09-26T08:00:16.751Z,1023.30
2023-09-26T08:01:17.665Z,1023.31
2023-09-26T08:02:18.562Z,1023.28
2023-09-26T08:03:19.443Z,1023.24
2023-09-26T08:04:20.349Z,1023.27
2023-09-26T08:05:20.753Z,1023.24
2023-09-26T08:06:21.577Z,1023.26
2023-09-26T08:07:22.442Z,1023.25
2023-09-26T08:08:23.240Z,1023.26
2023-09-26T08:09:24.052Z,1023.24
2023-09-26T08:10:24.922Z,1023.20
2023-09-26T08:11:25.741Z,1023.20
2023-09-26T08:12:26.571Z,1023.23
2023-09-26T08:13:27.562Z,1023.24
2023-09-26T08:14:28.339Z,1023.20
2023-09-26T08:15:29.155Z,1023.23
2023-09-26T08:16:30.109Z,1023.22
2023-09-26T08:17:30.955Z,1023.18
2023-09-26T08:18:31.788Z,1023.19
2023-09-26T08:19:32.585Z,1023.14
2023-09-26T08:20:33.421Z,1023.15
2023-09-26T08:21:34.244Z,1023.14
2023-09-26T08:22:35.073Z,1023.13
2023-09-26T08:23:35.883Z,1023.17
2023-09-26T08:24:36.748Z,1023.18
2023-09-26T08:25:37.624Z,1023.13
2023-09-26T08:26:38.426Z,1023.11
2023-09-26T08:27:39.246Z,1023.15
2023-09-26T08:28:40.071Z,1023.12
2023-09-26T08:29:40.895Z,1023.10
2023-09-26T08:30:41.733Z,1023.11
2023-09-26T08:31:42.607Z,1023.12
2023-09-26T08:32:43.465Z,1023.15
2023-09-26T08:33:44.332Z,1023.13
2023-09-26T08:34:45.137Z,1023.12
2023-09-26T08:35:45.987Z,1023.12
2023-09-26T08:36:46.800Z,1023.12
2023-09-26T08:37:47.612Z,1023.12
2023-09-26T08:38:48.437Z,1023.09
2023-09-26T08:39:49.288Z,1023.09
2023-09-26T08:40:50.091Z,1023.12
2023-09-26T08:41:51.489Z,1023.09
2023-09-26T08:42:51.901Z,1023.08
2023-09-26T08:43:52.911Z,1023.06
2023-09-26T08:44:53.325Z,1023.04
2023-09-26T08:45:54.244Z,1023.04
2023-09-26T08:46:55.223Z,1023.03
2023-09-26T08:47:56.163Z,1023.07
2023-09-26T08:48:58.202Z,1023.05
2023-09-26T08:49:57.808Z,1023.03
2023-09-26T08:50:58.576Z,1023.06
2023-09-26T08:51:59.451Z,1023.04
2023-09-26T08:53:00.309Z,1023.05
2023-09-26T08:54:01.160Z,1023.05
2023-09-26T08:55:02.013Z,1023.05
2023-09-26T08:56:02.859Z,1023.03
2023-09-26T08:57:03.686Z,1023.04
2023-09-26T08:58:04.558Z,1023.03
2023-09-26T08:59:05.412Z,1023.02
2023-09-26T09:00:06.280Z,1023.01
2023-09-26T09:01:07.180Z,1023.03
2023-09-26T09:02:08.046Z,1023.07
2023-09-26T09:03:10.024Z,1023.06
2023-09-26T09:04:09.590Z,1023.04
2023-09-26T09:05:10.417Z,1023.05
2023-09-26T09:06:11.243Z,1023.03
2023-09-26T09:07:12.086Z,1023.03
2023-09-26T09:08:12.923Z,1023.03
2023-09-26T09:09:13.715Z,1023.00
2023-09-26T09:10:14.590Z,1023.00
2023-09-26T09:11:15.368Z,1023.00
2023-09-26T09:12:16.203Z,1022.99
2023-09-26T09:13:17.089Z,1022.98
2023-09-26T09:14:17.880Z,1022.97
2023-09-26T09:15:18.867Z,1022.97
2023-09-26T09:16:19.737Z,1022.95
2023-09-26T09:17:20.639Z,1022.91
2023-09-26T09:18:21.415Z,1022.89
2023-09-26T09:19:22.266Z,1022.88
2023-09-26T09:20:23.105Z,1022.87
2023-09-26T09:21:23.926Z,1022.87
2023-09-26T09:22:24.803Z,1022.86
2023-09-26T09:23:25.580Z,1022.86
2023-09-26T09:24:26.406Z,1022.83
2023-09-26T09:25:27.266Z,1022.83
2023-09-26T09:26:28.081Z,1022.83
2023-09-26T09:27:28.894Z,1022.85
2023-09-26T09:28:29.839Z,1022.84
2023-09-26T09:29:30.608Z,1022.85
2023-09-26T09:30:31.429Z,1022.85
2023-09-26T09:31:32.294Z,1022.85
2023-09-26T09:32:33.128Z,1022.85
2023-09-26T09:33:33.918Z,1022.85
2023-09-26T09:34:34.743Z,1022.85
2023-09-26T09:35:35.587Z,1022.84
2023-09-26T09:36:36.430Z,1022.85
2023-09-26T09:37:37.241Z,1022.83
2023-09-26T09:38:38.075Z,1022.81
2023-09-26T09:39:38.884Z,1022.81
2023-09-26T09:40:39.743Z,1022.80
2023-09-26T09:41:40.546Z,1022.79
2023-09-26T09:42:41.388Z,1022.78
2023-09-26T09:43:42.198Z,1022.77
2023-09-26T09:44:43.022Z,1022.76
2023-09-26T09:45:43.882Z,1022.74
2023-09-26T09:46:44.987Z,1022.73
2023-09-26T09:47:45.415Z,1022.72
2023-09-26T09:48:46.282Z,1022.71
2023-09-26T09:49:47.119Z,1022.67
2023-09-26T09:50:47.956Z,1022.67
2023-09-26T09:51:48.821Z,1022.66
2023-09-26T09:52:49.646Z,1022.70
2023-09-26T09:53:50.458Z,1022.69
2023-09-26T09:54:51.319Z,1022.69
2023-09-26T09:55:52.109Z,1022.67
2023-09-26T09:56:52.929Z,1022.66
2023-09-26T09:57:53.746Z,1022.64
2023-09-26T09:58:54.765Z,1022.64
2023-09-26T09:59:55.226Z,1022.63
2023-09-26T10:00:56.059Z,1022.64
2023-09-26T10:01:56.977Z,1022.61
2023-09-26T10:02:57.896Z,1022.62
2023-09-26T10:03:58.751Z,1022.62
2023-09-26T10:04:59.670Z,1022.62
2023-09-26T10:06:00.468Z,1022.61
2023-09-26T10:07:01.293Z,1022.62
2023-09-26T10:08:02.091Z,1022.60
2023-09-26T10:09:02.931Z,1022.61
2023-09-26T10:10:03.858Z,1022.60
2023-09-26T10:11:06.908Z,1022.59
2023-09-26T10:12:05.391Z,1022.58
2023-09-26T10:13:33.032Z,1022.58
2023-09-26T10:14:07.971Z,1022.57
2023-09-26T10:15:07.775Z,1022.58
2023-09-26T10:16:08.781Z,1022.59
2023-09-26T10:17:09.289Z,1022.59
2023-09-26T10:18:10.210Z,1022.58
2023-09-26T10:19:11.091Z,1022.56
2023-09-26T10:21:13.665Z,1022.57
2023-09-26T10:22:13.473Z,1022.56
2023-09-26T10:23:14.314Z,1022.58
2023-09-26T10:24:15.129Z,1022.60
2023-09-26T10:25:15.985Z,1022.60
2023-09-26T10:26:16.775Z,1022.60
2023-09-26T10:27:26.781Z,1022.62
2023-09-26T10:28:19.359Z,1022.60
2023-09-26T10:29:19.219Z,1022.61
2023-09-26T10:30:20.038Z,1022.60
2023-09-26T10:31:21.019Z,1022.61
2023-09-26T10:32:21.405Z,1022.59
2023-09-26T10:33:36.766Z,1022.60
2023-09-26T10:34:25.724Z,1022.58
2023-09-26T10:35:26.155Z,1022.60
2023-09-26T10:36:24.597Z,1022.61
2023-09-26T10:37:25.457Z,1022.61
2023-09-26T10:38:26.284Z,1022.62
2023-09-26T10:39:27.090Z,1022.62
2023-09-26T10:40:27.957Z,1022.64
2023-09-26T10:41:28.775Z,1022.62
2023-09-26T10:43:43.134Z,1022.63
2023-09-26T10:44:32.056Z,1022.63
2023-09-26T10:45:31.871Z,1022.62
2023-09-26T10:46:32.922Z,1022.61
2023-09-26T10:47:33.262Z,1022.62
2023-09-26T10:48:34.104Z,1022.62
2023-09-26T10:49:34.927Z,1022.60
2023-09-26T10:50:36.147Z,1022.61
2023-09-26T10:51:36.637Z,1022.61
2023-09-26T10:52:37.596Z,1022.60
2023-09-26T10:53:38.402Z,1022.58
2023-09-26T10:54:39.207Z,1022.58
2023-09-26T10:55:40.044Z,1022.56
2023-09-26T10:56:40.859Z,1022.54
2023-09-26T10:57:41.689Z,1022.55
2023-09-26T10:58:42.533Z,1022.57
2023-09-26T10:59:43.337Z,1022.56
2023-09-26T11:00:44.155Z,1022.52
2023-09-26T11:01:45.283Z,1022.50
2023-09-26T11:02:45.760Z,1022.51
2023-09-26T11:03:46.277Z,1022.47
2023-09-26T11:04:47.481Z,1022.49
2023-09-26T11:06:50.328Z,1022.46
2023-09-26T11:07:49.847Z,1022.49
2023-09-26T11:08:50.263Z,1022.52
2023-09-26T11:09:51.089Z,1022.52
2023-09-26T11:10:51.950Z,1022.53
2023-09-26T11:11:52.753Z,1022.55
2023-09-26T11:12:53.585Z,1022.53
2023-09-26T11:13:54.402Z,1022.53
2023-09-26T11:14:55.227Z,1022.55
2023-09-26T11:15:56.118Z,1022.55
2023-09-26T11:16:57.706Z,1022.55
2023-09-26T11:17:57.636Z,1022.55
2023-09-26T11:18:58.505Z,1022.54
2023-09-26T11:19:59.384Z,1022.54
2023-09-26T11:21:03.178Z,1022.56
2023-09-26T11:22:01.880Z,1022.53
2023-09-26T11:23:01.722Z,1022.52
2023-09-26T11:24:02.521Z,1022.52
2023-09-26T11:25:03.339Z,1022.52
2023-09-26T11:26:04.197Z,1022.50
2023-09-26T11:27:05.983Z,1022.51
2023-09-26T11:28:05.702Z,1022.51
2023-09-26T11:29:06.592Z,1022.51
2023-09-26T11:30:07.417Z,1022.49
2023-09-26T11:31:08.241Z,1022.50
2023-09-26T11:32:10.312Z,1022.50
2023-09-26T11:33:09.988Z,1022.46
2023-09-26T11:34:10.860Z,1022.49
2023-09-26T11:35:11.664Z,1022.48
2023-09-26T11:36:12.508Z,1022.45
2023-09-26T11:37:13.335Z,1022.44
2023-09-26T11:38:14.163Z,1022.42
2023-09-26T11:39:15.038Z,1022.41
2023-09-26T11:40:15.860Z,1022.39
2023-09-26T11:41:16.785Z,1022.42
2023-09-26T11:42:17.294Z,1022.42
2023-09-26T11:43:18.106Z,1022.41
2023-09-26T11:44:18.952Z,1022.39
2023-09-26T11:45:19.775Z,1022.42
2023-09-26T11:46:20.604Z,1022.41
2023-09-26T11:47:21.427Z,1022.43
2023-09-26T11:48:22.260Z,1022.43
2023-09-26T11:49:23.107Z,1022.45
2023-09-26T11:50:23.906Z,1022.45
2023-09-26T11:51:24.720Z,1022.46
2023-09-26T11:52:25.554Z,1022.47
2023-09-26T11:53:26.389Z,1022.43
2023-09-26T11:54:27.217Z,1022.46
2023-09-26T11:55:28.031Z,1022.46
2023-09-26T11:56:28.859Z,1022.45
2023-09-26T11:57:29.686Z,1022.43
2023-09-26T11:58:30.524Z,1022.43
2023-09-26T11:59:32.570Z,1022.41
2023-09-26T12:00:31.913Z,1022.39
2023-09-26T12:01:32.814Z,1022.39
2023-09-26T12:02:33.882Z,1022.39
2023-09-26T12:03:34.317Z,1022.39
2023-09-26T12:04:35.209Z,1022.39
2023-09-26T12:05:36.008Z,1022.38
2023-09-26T12:06:36.843Z,1022.39
2023-09-26T12:07:37.673Z,1022.39
2023-09-26T12:08:38.526Z,1022.39
2023-09-26T12:09:39.335Z,1022.38
2023-09-26T12:10:43.623Z,1022.38
2023-09-26T12:11:41.101Z,1022.39
2023-09-26T12:12:41.945Z,1022.38
2023-09-26T12:13:42.763Z,1022.40
2023-09-26T12:14:43.573Z,1022.40
2023-09-26T12:15:44.389Z,1022.42
2023-09-26T12:16:45.441Z,1022.41
2023-09-26T12:17:45.942Z,1022.43
2023-09-26T12:18:46.775Z,1022.41
2023-09-26T12:19:47.687Z,1022.39